Current | Forecast
Updated: 7:15 PM CEST on October 21, 2017
Observed at Papa, Hungary
Temperature 10°C
Humidity 94%
Dew Point 9°C
Wind North at 0 km/h
Pressure 1018 hPa (Steady)
Conditions Mostly Cloudy
Visibility 5.0 kilometers
UV 0 out of 16
Clouds Mostly Cloudy (BKN) : 2529 m
Yesterday's Maximum 13°C
Yesterday's Minimum 4°C approx.
Yesterday's Heating Degree Days 18 approx.
Sunrise7:18 AM CEST
Sunset5:53 PM CEST
Moon Rise8:40 AM CEST
Moon Set7:10 PM CEST
Moon PhaseMoon Phase
Waxing Crescent
Raw METARMETAR LHPA 211715Z 00000KT 5000 BR BKN083 10/09 Q1018 BECMG 3000 BR RMK WHT


Monday
. High: 66° F.
Tuesday
. High: 75° F.
Wednesday
. High: 80° F.
Thursday
. High: 73° F.
Friday
. High: 66° F.
Saturday
. High: 73° F.
Sunday
. High: 80° F.
Monday
. High: 69° F.

Units: English | Metric

Find the Weather for any City, State or Zipcode, or Country:

U.S. State List | Severe Weather | Tropical Storms | Ski Conditions
United States | Canada | Central America | South America | Asia | Europe | Australia | Africa | Islands

Weather Underground

© Copyright 2017
The Weather Company, LLC